Time;durP1;ratioP1;P1;durP2;ratioP2;P2;SDS_P1;SDS_P2;PMS_P1;PMS_P2;Temp;Humidity;BMP_temperature;BMP_pressure;BME280_temperature;BME280_humidity;BME280_pressure;Samples;Min_cycle;Max_cycle;Signal;HPM_P1;HPM_P2
2021/09/28 00:02:04;;;;;;;;;4.75;4.75;;;;;16.29;62.07;101907.88;4982184;28;45440;-69
2021/09/28 00:04:29;;;;;;;;;4.00;4.00;;;;;16.33;62.00;101922.97;4962676;28;45817;-69
2021/09/28 00:06:55;;;;;;;;;4.50;3.75;;;;;16.40;62.22;101937.97;4982855;28;46243;-69
2021/09/28 00:09:20;;;;;;;;;5.75;4.25;;;;;16.25;62.05;101906.22;4982753;28;45374;-69
2021/09/28 00:11:50;;;;;;;;;4.25;4.00;;;;;16.29;62.22;101906.06;4966390;28;45437;-69
2021/09/28 00:14:17;;;;;;;;;3.25;3.25;;;;;16.38;62.14;101914.72;4965004;28;45985;-69
2021/09/28 00:16:42;;;;;;;;;5.00;5.00;;;;;16.44;62.38;101942.31;4980576;28;46354;-69
2021/09/28 00:19:08;;;;;;;;;4.00;3.75;;;;;16.46;61.98;101937.75;4987031;28;45224;-69
2021/09/28 00:21:33;;;;;;;;;6.00;5.75;;;;;16.43;62.09;101943.25;4982637;28;46362;-69
2021/09/28 00:23:59;;;;;;;;;4.00;4.00;;;;;16.46;62.05;101953.03;4981718;28;45360;-69
2021/09/28 00:26:24;;;;;;;;;3.25;3.25;;;;;16.27;62.35;101926.78;4981518;28;46695;-69
2021/09/28 00:28:50;;;;;;;;;4.75;4.75;;;;;16.20;62.32;101919.84;4981592;28;45337;-69
2021/09/28 00:31:15;;;;;;;;;5.25;4.00;;;;;16.16;62.11;101911.97;4978331;28;45662;-69
2021/09/28 00:33:41;;;;;;;;;6.50;4.00;;;;;16.11;62.16;101906.75;4980950;28;45707;-69
2021/09/28 00:36:07;;;;;;;;;3.25;3.25;;;;;16.33;62.37;101947.22;4981084;28;47754;-69
2021/09/28 00:38:32;;;;;;;;;6.00;5.00;;;;;16.22;62.10;101939.56;4981621;28;45341;-69
2021/09/28 00:40:57;;;;;;;;;5.00;5.00;;;;;16.25;62.33;101936.72;4957204;28;45352;-69
2021/09/28 00:43:23;;;;;;;;;4.00;4.00;;;;;16.19;62.00;101934.28;4980384;28;45338;-69
2021/09/28 00:45:48;;;;;;;;;4.25;4.25;;;;;16.25;62.39;101946.63;4981156;28;46273;-69
2021/09/28 00:48:14;;;;;;;;;4.00;4.00;;;;;16.41;62.37;101965.81;4963948;28;45407;-69
2021/09/28 00:50:40;;;;;;;;;3.50;3.50;;;;;16.24;62.27;101929.59;4980801;28;45479;-69
2021/09/28 00:53:06;;;;;;;;;4.00;3.00;;;;;16.18;62.34;101915.47;4980857;28;45481;-69
2021/09/28 00:55:31;;;;;;;;;6.75;5.25;;;;;16.39;62.58;101954.19;4981307;28;45619;-69
2021/09/28 00:58:02;;;;;;;;;5.75;4.75;;;;;16.26;62.22;101930.41;4981025;28;45164;-69
2021/09/28 01:00:28;;;;;;;;;5.00;4.00;;;;;16.42;62.30;101960.38;4960428;28;45544;-69
2021/09/28 01:02:55;;;;;;;;;5.00;4.00;;;;;16.41;62.24;101960.44;4981168;28;45477;-69
2021/09/28 01:05:20;;;;;;;;;5.50;5.00;;;;;16.29;62.43;101946.47;4981132;28;45438;-69
2021/09/28 01:07:46;;;;;;;;;4.50;3.50;;;;;16.11;62.29;101920.22;4970549;28;45222;-69
2021/09/28 01:10:11;;;;;;;;;5.00;5.00;;;;;16.16;62.45;101917.34;4981260;28;45236;-69
2021/09/28 01:12:37;;;;;;;;;5.25;4.75;;;;;16.18;62.64;101931.63;4981038;28;45155;-69
2021/09/28 01:15:03;;;;;;;;;5.50;5.00;;;;;16.29;62.51;101946.47;4963275;28;47787;-69
2021/09/28 01:17:29;;;;;;;;;5.00;5.00;;;;;16.12;62.64;101916.56;4979727;28;45897;-69
2021/09/28 01:19:54;;;;;;;;;6.00;5.00;;;;;16.15;62.63;101918.28;4980800;28;45414;-69
2021/09/28 01:22:20;;;;;;;;;5.00;4.25;;;;;16.17;62.72;101919.09;4980761;28;45571;-69
2021/09/28 01:24:47;;;;;;;;;4.25;4.00;;;;;16.19;62.61;101919.91;4980701;28;46060;-69
2021/09/28 01:27:14;;;;;;;;;2.50;1.50;;;;;16.23;62.50;101927.81;4980906;28;45413;-69
2021/09/28 01:29:41;;;;;;;;;4.00;3.00;;;;;16.16;62.68;101918.22;4958193;28;45307;-69
2021/09/28 01:32:07;;;;;;;;;4.00;4.00;;;;;16.19;62.77;101920.81;4972937;28;45494;-69
2021/09/28 01:34:33;;;;;;;;;7.25;5.75;;;;;16.12;62.80;101913.88;4980236;28;47670;-69
2021/09/28 01:36:58;;;;;;;;;5.00;5.00;;;;;16.06;62.79;101903.34;4980818;28;45593;-69
2021/09/28 01:39:23;;;;;;;;;4.50;4.50;;;;;16.03;62.58;101912.41;4963332;28;45295;-69
2021/09/28 01:41:52;;;;;;;;;6.00;5.25;;;;;16.29;62.74;101946.47;4980497;28;45439;-69
2021/09/28 01:44:20;;;;;;;;;5.75;5.00;;;;;16.10;62.69;101913.97;4980319;28;45449;-69
2021/09/28 01:46:47;;;;;;;;;7.50;6.00;;;;;16.01;62.79;101892.72;4980522;28;45335;-69
2021/09/28 01:49:16;;;;;;;;;4.00;4.00;;;;;16.10;62.41;101915.75;4979652;28;45580;-69
2021/09/28 01:51:42;;;;;;;;;4.00;4.00;;;;;15.95;62.74;101894.78;4978536;28;45397;-69
2021/09/28 01:54:09;;;;;;;;;5.25;4.00;;;;;16.04;62.85;101918.69;4979807;28;46440;-69
2021/09/28 01:56:35;;;;;;;;;4.75;4.00;;;;;16.17;62.76;101935.25;4980674;28;45427;-69
2021/09/28 01:59:03;;;;;;;;;4.25;4.25;;;;;16.16;62.94;101938.91;4980440;28;45552;-69
2021/09/28 02:01:29;;;;;;;;;4.50;4.00;;;;;15.89;63.03;101902.16;4980251;28;45460;-69
2021/09/28 02:03:55;;;;;;;;;4.00;4.00;;;;;16.09;62.79;101933.72;4980161;28;45566;-69
2021/09/28 02:06:22;;;;;;;;;4.50;4.50;;;;;15.95;62.77;101894.78;4976500;28;45427;-69
2021/09/28 02:08:48;;;;;;;;;5.00;5.00;;;;;16.06;63.04;101914.13;4977538;28;45211;-69
2021/09/28 02:11:14;;;;;;;;;7.25;5.75;;;;;16.09;63.07;101914.00;4980395;28;45357;-69
2021/09/28 02:13:40;;;;;;;;;5.00;5.00;;;;;15.96;63.32;101889.34;4979856;28;45572;-69
2021/09/28 02:16:06;;;;;;;;;6.00;4.75;;;;;16.05;63.20;101897.06;4980145;28;45338;-69
2021/09/28 02:18:32;;;;;;;;;5.00;4.00;;;;;16.13;63.08;101912.06;4980285;28;45446;-69
2021/09/28 02:20:58;;;;;;;;;5.25;4.50;;;;;15.83;63.27;101855.72;4967270;28;45476;-69
2021/09/28 02:23:23;;;;;;;;;7.00;5.00;;;;;15.97;63.10;101887.50;4980023;28;45477;-69
2021/09/28 02:25:49;;;;;;;;;3.25;3.25;;;;;15.98;63.05;101882.06;4961255;28;45345;-69
2021/09/28 02:28:14;;;;;;;;;6.00;4.50;;;;;15.89;63.20;101868.97;4980087;28;45351;-69
2021/09/28 02:30:39;;;;;;;;;5.00;5.00;;;;;16.12;63.13;101913.88;4979942;28;45902;-69
2021/09/28 02:33:05;;;;;;;;;3.50;3.50;;;;;15.90;63.08;101868.00;4979920;28;45490;-69
2021/09/28 02:35:31;;;;;;;;;4.50;3.50;;;;;16.08;63.14;101902.34;4978592;28;46084;-69
2021/09/28 02:37:56;;;;;;;;;5.00;4.00;;;;;15.80;62.96;101859.38;4980134;28;45373;-69
2021/09/28 02:40:23;;;;;;;;;6.00;4.75;;;;;16.02;62.74;101901.69;4979782;28;45405;-69
2021/09/28 02:42:49;;;;;;;;;4.25;4.25;;;;;15.82;63.03;101862.03;4979672;28;45517;-69
2021/09/28 02:45:14;;;;;;;;;5.00;4.50;;;;;16.07;63.02;101897.91;4979515;28;45242;-69
2021/09/28 02:47:40;;;;;;;;;4.00;4.00;;;;;15.77;63.54;101850.53;4980096;28;45310;-69
2021/09/28 02:50:06;;;;;;;;;4.25;3.50;;;;;15.66;63.30;101837.47;4972301;28;45492;-69
2021/09/28 02:52:31;;;;;;;;;4.75;4.75;;;;;16.02;62.83;101893.59;4974274;28;45519;-69
2021/09/28 02:54:56;;;;;;;;;4.00;4.00;;;;;15.59;63.04;101817.09;4959149;28;45980;-69
2021/09/28 02:57:22;;;;;;;;;5.00;4.75;;;;;15.75;63.16;101845.19;4974294;28;45243;-69
2021/09/28 02:59:48;;;;;;;;;7.00;5.50;;;;;15.86;63.42;101861.00;4979457;28;45547;-69
2021/09/28 03:02:13;;;;;;;;;5.75;5.00;;;;;15.74;63.30;101849.69;4979526;28;46445;-69
2021/09/28 03:04:38;;;;;;;;;5.75;5.50;;;;;16.00;63.23;101884.72;4982245;28;45444;-69
2021/09/28 03:07:04;;;;;;;;;4.00;4.00;;;;;15.68;63.64;101849.03;4956917;28;46995;-69
2021/09/28 03:09:30;;;;;;;;;5.50;4.00;;;;;15.58;63.51;101816.19;4982892;28;45382;-69
2021/09/28 03:11:56;;;;;;;;;5.00;5.00;;;;;15.76;63.37;101848.81;4982736;28;46286;-69
2021/09/28 03:14:24;;;;;;;;;4.00;3.00;;;;;15.97;63.55;101884.81;4982873;28;45356;-69
2021/09/28 03:16:50;;;;;;;;;5.75;4.00;;;;;16.03;63.43;101893.56;4982530;28;45405;-69
2021/09/28 03:19:17;;;;;;;;;5.50;4.50;;;;;15.86;63.38;101858.31;4982202;28;45326;-69
2021/09/28 03:21:43;;;;;;;;;4.25;4.25;;;;;15.79;63.37;101854.97;4982703;28;46264;-69
2021/09/28 03:24:09;;;;;;;;;4.00;4.00;;;;;15.87;63.28;101860.03;4982462;28;45651;-69
2021/09/28 03:26:35;;;;;;;;;8.00;5.00;;;;;16.04;63.25;101889.06;4965392;28;45382;-69
2021/09/28 03:29:00;;;;;;;;;4.00;2.25;;;;;16.06;63.37;101896.13;4982602;28;45484;-69
2021/09/28 03:31:26;;;;;;;;;4.00;3.00;;;;;16.04;63.30;101887.25;4982418;28;45758;-69
2021/09/28 03:33:52;;;;;;;;;4.25;3.50;;;;;16.02;63.19;101888.22;4964708;28;46014;-69
2021/09/28 03:36:17;;;;;;;;;3.75;2.50;;;;;15.82;63.16;101843.19;4982510;28;45389;-69
2021/09/28 03:38:42;;;;;;;;;4.25;4.25;;;;;15.82;63.26;101845.88;4982299;28;45358;-69
2021/09/28 03:41:08;;;;;;;;;5.50;4.50;;;;;16.01;63.40;101881.09;4982275;28;46096;-69
2021/09/28 03:43:33;;;;;;;;;4.00;4.00;;;;;15.84;63.26;101852.09;4982287;28;45272;-69
2021/09/28 03:45:59;;;;;;;;;4.00;4.00;;;;;15.82;63.42;101853.94;4982299;28;45195;-69
2021/09/28 03:48:24;;;;;;;;;4.00;3.00;;;;;15.83;63.16;101850.34;4982274;28;45549;-69
2021/09/28 03:50:50;;;;;;;;;4.00;4.00;;;;;15.78;63.41;101833.47;4981194;28;46213;-69
2021/09/28 03:53:15;;;;;;;;;5.00;4.00;;;;;15.83;63.22;101840.44;4981651;28;45196;-69
2021/09/28 03:55:43;;;;;;;;;5.00;4.00;;;;;15.95;63.53;101859.78;4982233;28;45330;-69
2021/09/28 03:58:11;;;;;;;;;6.75;5.50;;;;;15.78;63.18;101839.72;4982188;28;45349;-69
2021/09/28 04:00:37;;;;;;;;;3.00;3.00;;;;;15.82;63.46;101844.06;4981678;28;46193;-69
2021/09/28 04:03:07;;;;;;;;;4.75;4.00;;;;;15.99;63.47;101878.47;4961358;28;45212;-69
2021/09/28 04:05:33;;;;;;;;;5.75;4.50;;;;;15.76;63.46;101840.72;4981156;28;45413;-69
2021/09/28 04:07:58;;;;;;;;;5.00;5.00;;;;;15.76;63.40;101846.97;4977117;28;45365;-69
2021/09/28 04:10:24;;;;;;;;;8.50;6.25;;;;;15.74;63.37;101848.81;4981950;28;46311;-69
2021/09/28 04:12:50;;;;;;;;;4.50;4.25;;;;;15.73;63.58;101850.63;4982076;28;45389;-69
2021/09/28 04:15:16;;;;;;;;;4.00;4.00;;;;;15.74;63.03;101855.09;4981657;28;45528;-69
2021/09/28 04:17:42;;;;;;;;;5.50;4.75;;;;;15.75;63.10;101853.25;4981951;28;45440;-69
2021/09/28 04:20:08;;;;;;;;;7.00;4.50;;;;;15.90;63.47;101884.16;4981014;28;45624;-69
2021/09/28 04:22:34;;;;;;;;;5.00;4.00;;;;;15.96;63.11;101891.16;4981615;28;45253;-69
2021/09/28 04:25:03;;;;;;;;;6.00;6.00;;;;;15.82;62.88;101878.19;4979701;28;45387;-69
2021/09/28 04:27:29;;;;;;;;;5.00;4.25;;;;;15.81;63.04;101897.97;4981489;28;45363;-69
2021/09/28 04:29:54;;;;;;;;;5.75;5.25;;;;;15.77;63.19;101891.81;4981293;28;45318;-69
2021/09/28 04:32:20;;;;;;;;;4.75;4.75;;;;;15.43;63.20;101846.34;4981835;28;45784;-69
2021/09/28 04:34:45;;;;;;;;;5.25;4.25;;;;;15.58;63.30;101886.16;4981510;28;45424;-69
2021/09/28 04:37:11;;;;;;;;;6.00;5.75;;;;;15.50;63.49;101861.34;4981675;28;45571;-69
2021/09/28 04:39:37;;;;;;;;;6.00;6.00;;;;;15.29;63.42;101830.69;4959935;28;48258;-69
2021/09/28 04:42:03;;;;;;;;;4.00;4.00;;;;;15.21;63.56;101824.69;4969213;28;45554;-69
2021/09/28 04:44:28;;;;;;;;;5.50;5.50;;;;;15.33;63.80;101835.88;4981520;28;45339;-69
2021/09/28 04:46:53;;;;;;;;;5.00;5.00;;;;;15.34;63.42;101828.72;4981379;28;45206;-69
2021/09/28 04:49:19;;;;;;;;;5.75;4.00;;;;;15.46;63.59;101854.31;4976165;28;45240;-69
2021/09/28 04:51:44;;;;;;;;;7.00;6.00;;;;;15.50;63.59;101874.78;4973520;28;45313;-69
2021/09/28 04:54:10;;;;;;;;;5.25;5.25;;;;;15.52;63.54;101875.63;4981147;28;45393;-69
2021/09/28 04:56:36;;;;;;;;;4.75;3.00;;;;;15.49;63.58;101881.13;4963895;28;45930;-69
2021/09/28 04:59:03;;;;;;;;;5.00;5.00;;;;;15.43;63.59;101884.88;4981029;28;45279;-69
2021/09/28 05:01:28;;;;;;;;;7.00;5.00;;;;;15.25;63.34;101850.53;4960275;28;46092;-69
2021/09/28 05:03:54;;;;;;;;;8.00;7.00;;;;;15.27;63.48;101851.38;4979922;28;45360;-69
2021/09/28 05:06:19;;;;;;;;;4.75;4.75;;;;;15.28;63.62;101862.06;4959987;28;45850;-69
2021/09/28 05:08:44;;;;;;;;;5.00;4.25;;;;;15.38;63.54;101870.72;4979375;28;45570;-69
2021/09/28 05:11:11;;;;;;;;;5.50;4.50;;;;;15.35;63.44;101865.44;4975426;28;45402;-70
2021/09/28 05:13:37;;;;;;;;;5.25;4.75;;;;;15.47;63.36;101882.97;4968657;28;45506;-70
2021/09/28 05:16:03;;;;;;;;;3.00;3.00;;;;;15.43;63.38;101889.41;4975461;28;45493;-70
2021/09/28 05:18:28;;;;;;;;;7.00;4.00;;;;;15.28;63.57;101863.91;4974557;28;45270;-70
2021/09/28 05:20:54;;;;;;;;;3.50;3.50;;;;;15.30;63.42;101862.03;4984674;28;45228;-70
2021/09/28 05:23:19;;;;;;;;;5.00;4.00;;;;;15.33;63.50;101864.63;4978617;28;46335;-70
2021/09/28 05:25:46;;;;;;;;;4.00;4.00;;;;;15.25;63.35;101851.44;4965799;28;45234;-70
2021/09/28 05:28:11;;;;;;;;;6.00;5.00;;;;;15.37;63.35;101866.28;4980258;28;45219;-70
2021/09/28 05:30:37;;;;;;;;;4.00;4.00;;;;;15.30;63.11;101865.63;4963075;28;45233;-70
2021/09/28 05:33:02;;;;;;;;;7.00;5.00;;;;;15.50;63.28;101893.63;4980187;28;45701;-70
2021/09/28 05:35:28;;;;;;;;;5.00;5.00;;;;;15.23;63.13;101847.03;4963060;28;45490;-70
2021/09/28 05:37:53;;;;;;;;;4.00;4.00;;;;;15.26;63.03;101860.38;4958431;28;46195;-70
2021/09/28 05:40:19;;;;;;;;;4.00;4.00;;;;;15.28;63.21;101866.59;4972467;28;45338;-70
2021/09/28 05:42:45;;;;;;;;;4.25;4.00;;;;;15.14;63.10;101826.72;4962597;28;45393;-70
2021/09/28 05:45:11;;;;;;;;;4.50;4.50;;;;;15.31;63.37;101870.03;4980531;28;45371;-70
2021/09/28 05:47:37;;;;;;;;;6.00;5.00;;;;;15.06;63.07;101815.34;4980252;28;45348;-70
2021/09/28 05:50:04;;;;;;;;;5.25;4.50;;;;;15.25;63.24;101859.53;4980521;28;45392;-70
2021/09/28 05:52:30;;;;;;;;;5.00;4.00;;;;;15.26;62.91;101866.63;4980125;28;45922;-70
2021/09/28 05:54:55;;;;;;;;;5.00;4.00;;;;;15.14;63.46;101840.16;4980313;28;45730;-70
2021/09/28 05:57:22;;;;;;;;;5.75;5.75;;;;;15.17;63.48;101842.75;4979834;28;46080;-70
2021/09/28 05:59:48;;;;;;;;;6.00;5.00;;;;;14.94;63.37;101820.19;4979238;28;45491;-70
2021/09/28 06:02:15;;;;;;;;;5.50;4.00;;;;;14.94;63.53;101817.50;4980264;28;45404;-70
2021/09/28 06:04:41;;;;;;;;;6.00;4.00;;;;;15.00;63.60;101824.47;4968662;28;45457;-70
2021/09/28 06:07:07;;;;;;;;;5.00;3.00;;;;;14.96;63.35;101823.72;4965154;28;45420;-70
2021/09/28 06:09:37;;;;;;;;;3.75;3.75;;;;;15.21;63.46;101863.22;4980100;28;45803;-70
2021/09/28 06:12:06;;;;;;;;;5.75;5.00;;;;;15.00;63.56;101821.78;4979614;28;45382;-70
2021/09/28 06:14:33;;;;;;;;;6.00;5.00;;;;;15.08;63.74;101843.94;4980074;28;45472;-70
2021/09/28 06:16:59;;;;;;;;;7.00;5.75;;;;;15.21;63.61;101865.03;4979795;28;46320;-71
2021/09/28 06:19:26;;;;;;;;;3.25;3.25;;;;;15.19;63.85;101857.91;4979975;28;45449;-71
2021/09/28 06:21:52;;;;;;;;;5.00;5.00;;;;;14.98;63.70;101820.97;4980100;28;45334;-71
2021/09/28 06:24:17;;;;;;;;;7.00;6.50;;;;;15.22;63.54;101864.09;4978698;28;45863;-70
2021/09/28 06:26:44;;;;;;;;;5.25;5.25;;;;;14.99;63.67;101830.81;4956349;28;47250;-70
2021/09/28 06:29:10;;;;;;;;;7.25;6.25;;;;;15.19;63.66;101855.22;4979692;28;45365;-71
2021/09/28 06:31:36;;;;;;;;;7.00;6.00;;;;;15.14;63.75;101846.41;4979813;28;45349;-71
2021/09/28 06:34:01;;;;;;;;;5.00;4.75;;;;;15.03;63.91;101821.69;4979643;28;45373;-70
2021/09/28 06:36:27;;;;;;;;;5.50;5.50;;;;;15.17;63.62;101840.94;4980105;28;46117;-70
2021/09/28 06:38:53;;;;;;;;;9.00;7.50;;;;;15.37;63.64;101882.44;4980944;28;45437;-71
2021/09/28 06:41:19;;;;;;;;;5.00;5.00;;;;;15.11;63.87;101833.06;4973171;28;45233;-70
2021/09/28 06:43:44;;;;;;;;;8.00;6.50;;;;;15.45;63.66;101891.13;4972939;28;45524;-70
2021/09/28 06:46:10;;;;;;;;;5.75;5.25;;;;;15.43;63.54;101882.19;4979934;28;45238;-70
2021/09/28 06:48:35;;;;;;;;;5.50;5.50;;;;;15.03;63.57;101805.56;4983025;28;45445;-69
2021/09/28 06:51:01;;;;;;;;;8.00;6.50;;;;;15.17;63.51;101837.38;4974030;28;45962;-70
2021/09/28 06:53:26;;;;;;;;;7.00;6.75;;;;;15.16;63.49;101828.41;4964808;28;45583;-70
2021/09/28 06:55:51;;;;;;;;;4.25;4.25;;;;;15.28;63.86;101837.00;4982606;28;46412;-69
2021/09/28 06:58:17;;;;;;;;;6.00;5.00;;;;;15.27;63.62;101828.06;4981399;28;45353;-70
2021/09/28 07:00:42;;;;;;;;;6.25;6.00;;;;;15.32;63.56;101836.84;4948541;28;45336;-70
2021/09/28 07:03:08;;;;;;;;;8.50;6.25;;;;;15.55;63.41;101871.03;4958516;28;45856;-70
2021/09/28 07:05:34;;;;;;;;;11.00;8.00;;;;;15.09;63.27;101799.97;4964870;28;47971;-70
2021/09/28 07:07:59;;;;;;;;;7.75;7.00;;;;;15.51;63.33;101863.97;4978095;28;45503;-70
2021/09/28 07:10:24;;;;;;;;;7.00;7.00;;;;;15.46;63.97;101859.69;4982534;28;45457;-70
2021/09/28 07:12:50;;;;;;;;;9.25;8.25;;;;;15.26;63.41;101818.22;4982276;28;45492;-70
2021/09/28 07:15:16;;;;;;;;;6.75;6.25;;;;;15.49;63.29;101862.28;4982309;28;45495;-69
2021/09/28 07:17:43;;;;;;;;;8.50;6.25;;;;;15.53;63.29;101861.22;4965032;28;45884;-69
2021/09/28 07:20:10;;;;;;;;;8.00;8.00;;;;;15.32;63.11;101841.34;4969800;28;45406;-70
2021/09/28 07:22:35;;;;;;;;;7.75;7.00;;;;;15.50;63.02;101878.38;4961584;28;45520;-70
2021/09/28 07:25:01;;;;;;;;;11.00;7.25;;;;;15.36;63.44;101851.06;4982652;28;46336;-70
2021/09/28 07:27:27;;;;;;;;;8.00;7.00;;;;;15.25;63.41;101831.72;4981790;28;45365;-70
2021/09/28 07:29:52;;;;;;;;;6.00;6.00;;;;;15.21;63.37;101822.00;4981875;28;45890;-70
2021/09/28 07:32:20;;;;;;;;;5.25;5.25;;;;;15.22;63.12;101819.28;4982221;28;45440;-70
2021/09/28 07:34:46;;;;;;;;;4.75;4.00;;;;;15.21;63.05;101825.56;4964488;28;47030;-70
2021/09/28 07:37:11;;;;;;;;;4.50;4.50;;;;;15.17;63.21;101824.81;4982211;28;45439;-70
2021/09/28 07:39:36;;;;;;;;;7.75;5.75;;;;;15.42;63.05;101861.63;4981584;28;45420;-70
2021/09/28 07:42:02;;;;;;;;;5.75;5.75;;;;;15.48;63.06;101869.47;4982105;28;45352;-70
2021/09/28 07:44:28;;;;;;;;;5.25;5.00;;;;;15.41;63.14;101848.22;4968598;28;46331;-70
2021/09/28 07:46:53;;;;;;;;;5.50;5.50;;;;;15.49;63.39;101860.47;4982425;28;45615;-70
2021/09/28 07:49:19;;;;;;;;;6.00;6.00;;;;;15.32;63.35;101835.97;4963854;28;45371;-70
2021/09/28 07:51:45;;;;;;;;;7.00;5.75;;;;;15.21;63.39;101817.50;4963845;28;45195;-70
2021/09/28 07:54:11;;;;;;;;;5.00;5.00;;;;;15.26;63.23;101820.03;4981747;28;45534;-70
2021/09/28 07:56:37;;;;;;;;;8.50;7.00;;;;;15.34;63.49;101832.28;4961373;28;45695;-70
2021/09/28 07:59:05;;;;;;;;;7.00;7.00;;;;;15.50;63.69;101867.63;4960203;28;45447;-70
2021/09/28 08:01:31;;;;;;;;;7.00;5.00;;;;;15.31;63.42;101828.81;4963898;28;45553;-70
2021/09/28 08:03:57;;;;;;;;;5.00;4.25;;;;;15.32;63.84;101819.84;4977179;28;46939;-70
2021/09/28 08:06:22;;;;;;;;;5.75;5.75;;;;;15.48;63.60;101839.00;4977739;28;45538;-74
2021/09/28 08:08:47;;;;;;;;;8.25;6.25;;;;;15.68;63.28;101870.56;4978600;28;45349;-73
2021/09/28 08:11:13;;;;;;;;;7.00;6.75;;;;;15.45;63.68;101828.34;4981782;28;45242;-70
2021/09/28 08:13:38;;;;;;;;;8.00;6.00;;;;;15.68;63.12;101855.28;4981284;28;46233;-70
2021/09/28 08:16:04;;;;;;;;;9.00;6.50;;;;;15.60;63.38;101835.84;4981579;28;45311;-70
2021/09/28 08:18:30;;;;;;;;;6.50;4.00;;;;;15.55;63.04;101817.19;4964254;28;45322;-70
2021/09/28 08:20:55;;;;;;;;;8.00;6.25;;;;;15.85;63.21;101868.16;4960989;28;45411;-70
2021/09/28 08:23:20;;;;;;;;;5.25;5.00;;;;;15.84;63.34;101868.25;4977951;28;46417;-71
2021/09/28 08:26:00;;;;;;;;;4.25;4.25;;;;;15.57;63.16;101822.53;4981576;28;45329;-70
2021/09/28 08:31:11;;;;;;;;;7.50;6.00;;;;;15.89;63.27;101871.66;4981324;28;45299;-70
2021/09/28 08:33:38;;;;;;;;;9.00;7.50;;;;;15.74;63.01;101846.13;4981148;28;45420;-70
2021/09/28 08:36:05;;;;;;;;;6.75;6.00;;;;;15.72;63.05;101835.41;4981204;28;45278;-70
2021/09/28 08:38:31;;;;;;;;;6.50;6.50;;;;;15.82;62.95;101854.84;4980429;28;45509;-70
2021/09/28 08:40:59;;;;;;;;;6.00;6.00;;;;;15.83;62.93;101855.72;4961690;28;45454;-71
2021/09/28 08:43:25;;;;;;;;;7.25;5.00;;;;;15.82;62.33;101844.06;4978106;28;46547;-71
2021/09/28 08:45:51;;;;;;;;;6.50;6.50;;;;;16.04;62.86;101881.84;4980673;28;45409;-71
2021/09/28 08:48:17;;;;;;;;;8.25;8.25;;;;;16.08;63.04;101882.63;4980879;28;45441;-71
2021/09/28 08:50:48;;;;;;;;;9.00;7.00;;;;;16.03;62.98;101873.81;4979127;28;45454;-71
2021/09/28 08:53:18;;;;;;;;;5.00;3.75;;;;;15.86;62.82;101834.94;4952194;28;46679;-71
2021/09/28 08:55:45;;;;;;;;;8.25;5.50;;;;;15.91;62.79;101829.38;4979239;28;45377;-71
2021/09/28 08:58:17;;;;;;;;;5.50;5.50;;;;;16.02;62.71;101851.41;4944240;28;45420;-71
2021/09/28 09:00:44;;;;;;;;;7.50;6.25;;;;;16.25;62.86;101879.28;4978256;28;45360;-71
2021/09/28 09:03:30;;;;;;;;;6.25;4.50;;;;;16.32;62.27;101874.53;4980189;28;46770;-71
2021/09/28 09:05:58;;;;;;;;;5.00;5.00;;;;;16.33;62.50;101865.53;4956326;28;45435;-71
2021/09/28 09:08:26;;;;;;;;;5.25;4.00;;;;;16.25;61.66;101855.91;4978636;28;45378;-71
2021/09/28 09:11:11;;;;;;;;;7.75;7.75;;;;;16.28;62.27;101846.84;4979955;28;45558;-71
2021/09/28 09:13:56;;;;;;;;;6.50;6.50;;;;;16.26;61.95;101830.72;4978542;28;45494;-71
2021/09/28 09:16:33;;;;;;;;;4.00;4.00;;;;;16.44;62.00;101852.53;4979178;28;45373;-71
2021/09/28 09:19:16;;;;;;;;;7.00;7.00;;;;;16.62;61.94;101877.84;4978030;28;45714;-73
2021/09/28 09:21:43;;;;;;;;;5.50;5.00;;;;;16.65;61.82;101872.34;4978272;28;45524;-71
2021/09/28 09:24:08;;;;;;;;;5.50;5.00;;;;;16.56;61.68;101851.16;4979639;28;45451;-71
2021/09/28 09:26:34;;;;;;;;;5.00;5.00;;;;;16.71;61.38;101869.41;4976988;28;45322;-71
2021/09/28 09:28:59;;;;;;;;;6.25;6.00;;;;;16.55;61.60;101835.91;4980605;28;45335;-71
2021/09/28 09:31:34;;;;;;;;;4.75;4.75;;;;;16.78;61.37;101859.25;4947830;28;45851;-71
2021/09/28 09:34:10;;;;;;;;;4.00;4.00;;;;;16.62;61.13;101816.75;4955562;28;46734;-71
2021/09/28 09:36:37;;;;;;;;;4.00;4.00;;;;;16.70;61.44;101816.41;4979162;28;45323;-71
2021/09/28 09:39:05;;;;;;;;;5.00;4.00;;;;;16.90;61.34;101845.28;4962487;28;45200;-72
2021/09/28 09:41:33;;;;;;;;;3.00;3.00;;;;;16.73;61.22;101815.41;4961018;28;45511;-71
2021/09/28 09:44:04;;;;;;;;;2.25;2.25;;;;;16.97;61.16;101844.09;4973755;28;45426;-70
2021/09/28 09:46:44;;;;;;;;;7.00;5.00;;;;;16.76;61.37;101805.38;4980025;28;45784;-70
2021/09/28 09:49:11;;;;;;;;;4.25;2.00;;;;;16.80;60.83;101798.03;4974125;28;45704;-70
2021/09/28 09:51:42;;;;;;;;;5.25;3.75;;;;;16.88;60.38;101795.94;4979205;28;45504;-70
2021/09/28 09:54:08;;;;;;;;;3.00;2.00;;;;;17.08;60.90;101823.91;4977590;28;45966;-70
2021/09/28 09:56:51;;;;;;;;;3.00;3.00;;;;;16.97;60.07;101794.66;4979770;28;45343;-70
2021/09/28 09:59:19;;;;;;;;;5.50;3.75;;;;;17.01;60.05;101793.59;4974960;28;45335;-70
2021/09/28 10:01:45;;;;;;;;;7.00;2.25;;;;;17.00;59.96;101781.91;4969989;28;45722;-66
2021/09/28 10:04:16;;;;;;;;;3.25;2.00;;;;;17.08;59.92;101792.38;4977830;28;45597;-71
2021/09/28 10:06:41;;;;;;;;;7.00;3.75;;;;;17.24;59.98;101814.22;4974190;28;45534;-71
2021/09/28 10:09:12;;;;;;;;;1.50;1.50;;;;;17.03;59.65;101779.09;4958967;28;45388;-71
2021/09/28 10:11:39;;;;;;;;;2.50;2.00;;;;;17.14;59.39;101786.75;4973359;28;45519;-71
2021/09/28 10:14:06;;;;;;;;;1.25;1.00;;;;;17.31;59.82;101809.41;4978591;28;46276;-71
2021/09/28 10:16:36;;;;;;;;;2.75;1.50;;;;;17.31;59.87;101806.72;4980869;28;45556;-71
2021/09/28 10:19:04;;;;;;;;;2.75;2.00;;;;;17.20;58.99;101772.97;4975866;28;45532;-71
2021/09/28 10:21:33;;;;;;;;;2.25;1.00;;;;;17.30;59.18;101788.75;4985997;28;45413;-71
2021/09/28 10:24:17;;;;;;;;;2.00;2.00;;;;;17.49;58.64;101814.00;4973415;28;45434;-71
2021/09/28 10:26:43;;;;;;;;;3.00;0.50;;;;;17.23;59.30;101764.75;4967500;28;45426;-71
2021/09/28 10:29:53;;;;;;;;;0.75;0.75;;;;;17.57;58.14;101809.13;4965538;28;45410;-71
2021/09/28 10:32:25;;;;;;;;;4.75;1.75;;;;;17.61;58.81;101815.28;4974643;28;45354;-72
2021/09/28 10:35:06;;;;;;;;;3.25;1.25;;;;;17.65;58.89;101813.31;4983852;28;45797;-71
2021/09/28 10:37:54;;;;;;;;;1.00;1.00;;;;;17.52;59.10;101780.56;4984327;28;45410;-71
2021/09/28 10:40:26;;;;;;;;;5.50;2.50;;;;;17.68;58.37;101814.03;4986288;28;45429;-72
2021/09/28 10:43:03;;;;;;;;;3.00;1.50;;;;;17.69;58.47;101812.22;4981400;28;45605;-72
2021/09/28 10:45:28;;;;;;;;;3.75;1.00;;;;;17.73;58.44;101813.84;4968866;28;47022;-72
2021/09/28 10:48:08;;;;;;;;;1.25;1.00;;;;;17.57;58.18;101771.34;4984172;28;45366;-72
2021/09/28 10:50:38;;;;;;;;;2.50;1.00;;;;;17.81;58.20;101811.66;4986144;28;45678;-71
2021/09/28 10:53:28;;;;;;;;;2.00;2.00;;;;;17.85;58.53;101817.81;4972284;28;45522;-72
2021/09/28 10:56:01;;;;;;;;;3.50;0.75;;;;;17.85;57.81;101810.56;4984064;28;46358;-71
2021/09/28 10:58:28;;;;;;;;;3.50;2.00;;;;;17.88;57.97;101798.78;4984085;28;45310;-72
2021/09/28 11:00:56;;;;;;;;;1.00;1.00;;;;;17.93;57.78;101804.84;4979945;28;45436;-71
2021/09/28 11:03:40;;;;;;;;;5.25;1.25;;;;;17.94;57.57;101804.78;4964987;28;45498;-71
2021/09/28 11:06:07;;;;;;;;;6.25;1.00;;;;;17.73;58.17;101760.69;4971874;28;46612;-71
2021/09/28 11:08:37;;;;;;;;;0.75;0.75;;;;;17.74;58.08;101737.28;4981003;28;45371;-71
2021/09/28 11:11:05;;;;;;;;;0.75;0.75;;;;;17.88;57.56;101751.03;4968235;28;45346;-72
2021/09/28 11:13:35;;;;;;;;;5.00;3.75;;;;;17.93;57.40;101754.41;4985324;28;45495;-71
2021/09/28 11:16:07;;;;;;;;;0.75;0.00;;;;;17.89;57.37;101730.31;4967911;28;47060;-71
2021/09/28 11:18:33;;;;;;;;;0.75;0.75;;;;;17.95;56.76;101730.88;4985016;28;45969;-72
2021/09/28 11:21:10;;;;;;;;;1.75;0.00;;;;;18.00;56.94;101730.69;4983469;28;46692;-71
2021/09/28 11:23:36;;;;;;;;;0.75;0.00;;;;;17.91;55.49;101709.53;4984222;28;45310;-71
2021/09/28 11:26:02;;;;;;;;;2.25;1.00;;;;;18.10;56.20;101740.09;4981495;28;46236;-71
2021/09/28 11:28:27;;;;;;;;;3.75;2.50;;;;;18.08;56.03;101728.47;4982193;28;45211;-71